sensor_id;sensor_type;location;lat;lon;timestamp;P1;durP1;ratioP1;P2;durP2;ratioP2
44098;SDS011;29762;50.086;14.364;2023-05-10T00:03:07;7.47;;;3.05;;
44098;SDS011;29762;50.086;14.364;2023-05-10T00:08:27;5.43;;;2.67;;
44098;SDS011;29762;50.086;14.364;2023-05-10T00:13:46;6.45;;;3.00;;
44098;SDS011;29762;50.086;14.364;2023-05-10T00:19:06;4.70;;;2.47;;
44098;SDS011;29762;50.086;14.364;2023-05-10T00:24:26;7.32;;;3.33;;
44098;SDS011;29762;50.086;14.364;2023-05-10T00:29:46;5.47;;;2.88;;
44098;SDS011;29762;50.086;14.364;2023-05-10T00:35:05;5.68;;;2.60;;
44098;SDS011;29762;50.086;14.364;2023-05-10T00:40:25;6.00;;;2.80;;
44098;SDS011;29762;50.086;14.364;2023-05-10T00:45:49;4.43;;;2.65;;
44098;SDS011;29762;50.086;14.364;2023-05-10T00:51:10;3.92;;;2.58;;
44098;SDS011;29762;50.086;14.364;2023-05-10T00:56:29;4.88;;;2.50;;
44098;SDS011;29762;50.086;14.364;2023-05-10T01:01:49;4.40;;;2.25;;
44098;SDS011;29762;50.086;14.364;2023-05-10T01:07:08;4.55;;;2.40;;
44098;SDS011;29762;50.086;14.364;2023-05-10T01:12:27;5.35;;;2.60;;
44098;SDS011;29762;50.086;14.364;2023-05-10T01:17:47;5.28;;;2.75;;
44098;SDS011;29762;50.086;14.364;2023-05-10T01:23:14;4.18;;;2.42;;
44098;SDS011;29762;50.086;14.364;2023-05-10T01:34:25;4.65;;;2.25;;
44098;SDS011;29762;50.086;14.364;2023-05-10T01:39:48;3.95;;;2.33;;
44098;SDS011;29762;50.086;14.364;2023-05-10T01:45:14;4.80;;;2.67;;
44098;SDS011;29762;50.086;14.364;2023-05-10T01:50:40;4.88;;;2.33;;
44098;SDS011;29762;50.086;14.364;2023-05-10T01:56:01;4.18;;;2.50;;
44098;SDS011;29762;50.086;14.364;2023-05-10T02:01:22;3.55;;;2.10;;
44098;SDS011;29762;50.086;14.364;2023-05-10T02:06:42;4.68;;;2.45;;
44098;SDS011;29762;50.086;14.364;2023-05-10T02:12:02;2.63;;;2.00;;
44098;SDS011;29762;50.086;14.364;2023-05-10T02:17:23;4.38;;;2.25;;
44098;SDS011;29762;50.086;14.364;2023-05-10T02:22:44;4.38;;;2.45;;
44098;SDS011;29762;50.086;14.364;2023-05-10T02:28:04;4.15;;;2.08;;
44098;SDS011;29762;50.086;14.364;2023-05-10T02:33:25;4.07;;;1.98;;
44098;SDS011;29762;50.086;14.364;2023-05-10T02:38:44;2.90;;;2.17;;
44098;SDS011;29762;50.086;14.364;2023-05-10T02:44:05;3.85;;;2.22;;
44098;SDS011;29762;50.086;14.364;2023-05-10T02:49:27;3.30;;;2.10;;
44098;SDS011;29762;50.086;14.364;2023-05-10T02:54:50;4.53;;;2.30;;
44098;SDS011;29762;50.086;14.364;2023-05-10T03:00:11;3.47;;;2.25;;
44098;SDS011;29762;50.086;14.364;2023-05-10T03:05:31;2.45;;;1.80;;
44098;SDS011;29762;50.086;14.364;2023-05-10T03:11:14;3.30;;;2.33;;
44098;SDS011;29762;50.086;14.364;2023-05-10T03:16:45;2.83;;;2.10;;
44098;SDS011;29762;50.086;14.364;2023-05-10T03:22:08;3.22;;;2.05;;
44098;SDS011;29762;50.086;14.364;2023-05-10T03:27:30;2.60;;;1.80;;
44098;SDS011;29762;50.086;14.364;2023-05-10T03:32:52;2.47;;;1.70;;
44098;SDS011;29762;50.086;14.364;2023-05-10T03:38:12;4.45;;;1.90;;
44098;SDS011;29762;50.086;14.364;2023-05-10T03:43:33;4.70;;;1.80;;
44098;SDS011;29762;50.086;14.364;2023-05-10T03:48:52;2.70;;;2.00;;
44098;SDS011;29762;50.086;14.364;2023-05-10T03:54:12;2.72;;;2.03;;
44098;SDS011;29762;50.086;14.364;2023-05-10T03:59:31;5.15;;;1.90;;
44098;SDS011;29762;50.086;14.364;2023-05-10T04:04:51;1.98;;;1.73;;
44098;SDS011;29762;50.086;14.364;2023-05-10T04:10:11;3.10;;;1.88;;
44098;SDS011;29762;50.086;14.364;2023-05-10T04:15:31;2.65;;;1.73;;
44098;SDS011;29762;50.086;14.364;2023-05-10T04:20:50;5.32;;;1.73;;
44098;SDS011;29762;50.086;14.364;2023-05-10T04:26:09;2.88;;;1.50;;
44098;SDS011;29762;50.086;14.364;2023-05-10T04:31:29;3.00;;;1.20;;
44098;SDS011;29762;50.086;14.364;2023-05-10T04:36:48;2.17;;;1.60;;
44098;SDS011;29762;50.086;14.364;2023-05-10T04:42:08;1.75;;;1.40;;
44098;SDS011;29762;50.086;14.364;2023-05-10T04:47:28;1.75;;;1.40;;
44098;SDS011;29762;50.086;14.364;2023-05-10T04:52:47;2.40;;;1.20;;
44098;SDS011;29762;50.086;14.364;2023-05-10T04:58:07;7.78;;;1.73;;
44098;SDS011;29762;50.086;14.364;2023-05-10T05:03:26;3.00;;;1.60;;
44098;SDS011;29762;50.086;14.364;2023-05-10T05:08:46;3.42;;;1.88;;
44098;SDS011;29762;50.086;14.364;2023-05-10T05:14:05;13.10;;;3.60;;
44098;SDS011;29762;50.086;14.364;2023-05-10T05:19:25;5.55;;;2.10;;
44098;SDS011;29762;50.086;14.364;2023-05-10T05:24:44;9.90;;;2.80;;
44098;SDS011;29762;50.086;14.364;2023-05-10T05:30:04;9.32;;;3.08;;
44098;SDS011;29762;50.086;14.364;2023-05-10T05:35:24;12.13;;;3.72;;
44098;SDS011;29762;50.086;14.364;2023-05-10T05:40:44;10.93;;;3.67;;
44098;SDS011;29762;50.086;14.364;2023-05-10T05:46:04;12.77;;;4.13;;
44098;SDS011;29762;50.086;14.364;2023-05-10T05:51:24;10.82;;;4.22;;
44098;SDS011;29762;50.086;14.364;2023-05-10T05:56:44;14.93;;;4.30;;
44098;SDS011;29762;50.086;14.364;2023-05-10T06:02:03;11.00;;;4.07;;
44098;SDS011;29762;50.086;14.364;2023-05-10T06:07:23;11.68;;;3.65;;
44098;SDS011;29762;50.086;14.364;2023-05-10T06:12:43;12.75;;;4.25;;
44098;SDS011;29762;50.086;14.364;2023-05-10T06:18:02;10.80;;;4.13;;
44098;SDS011;29762;50.086;14.364;2023-05-10T06:23:22;12.50;;;4.35;;
44098;SDS011;29762;50.086;14.364;2023-05-10T06:28:42;11.32;;;3.95;;
44098;SDS011;29762;50.086;14.364;2023-05-10T06:34:02;13.80;;;4.40;;
44098;SDS011;29762;50.086;14.364;2023-05-10T06:39:21;12.85;;;4.03;;
44098;SDS011;29762;50.086;14.364;2023-05-10T06:44:41;10.15;;;4.03;;
44098;SDS011;29762;50.086;14.364;2023-05-10T06:50:01;41.50;;;25.85;;
44098;SDS011;29762;50.086;14.364;2023-05-10T06:55:20;23.10;;;12.93;;
44098;SDS011;29762;50.086;14.364;2023-05-10T07:00:40;28.35;;;14.98;;
44098;SDS011;29762;50.086;14.364;2023-05-10T07:06:03;24.08;;;13.52;;
44098;SDS011;29762;50.086;14.364;2023-05-10T07:11:23;27.52;;;13.88;;
44098;SDS011;29762;50.086;14.364;2023-05-10T07:16:42;25.95;;;13.07;;
44098;SDS011;29762;50.086;14.364;2023-05-10T07:22:02;22.90;;;12.57;;
44098;SDS011;29762;50.086;14.364;2023-05-10T07:27:21;22.83;;;12.20;;
44098;SDS011;29762;50.086;14.364;2023-05-10T07:32:40;23.65;;;11.63;;
44098;SDS011;29762;50.086;14.364;2023-05-10T07:38:01;21.15;;;11.00;;
44098;SDS011;29762;50.086;14.364;2023-05-10T07:43:20;19.95;;;10.88;;
44098;SDS011;29762;50.086;14.364;2023-05-10T07:48:40;19.00;;;10.85;;
44098;SDS011;29762;50.086;14.364;2023-05-10T07:54:00;18.08;;;11.35;;
44098;SDS011;29762;50.086;14.364;2023-05-10T07:59:20;16.77;;;10.80;;
44098;SDS011;29762;50.086;14.364;2023-05-10T08:04:39;16.80;;;10.57;;
44098;SDS011;29762;50.086;14.364;2023-05-10T08:09:59;20.75;;;10.23;;
44098;SDS011;29762;50.086;14.364;2023-05-10T08:15:19;19.30;;;10.50;;
44098;SDS011;29762;50.086;14.364;2023-05-10T08:20:38;15.77;;;9.93;;
44098;SDS011;29762;50.086;14.364;2023-05-10T08:25:58;16.55;;;8.68;;
44098;SDS011;29762;50.086;14.364;2023-05-10T08:31:18;13.45;;;8.27;;
44098;SDS011;29762;50.086;14.364;2023-05-10T08:36:38;13.23;;;8.30;;
44098;SDS011;29762;50.086;14.364;2023-05-10T08:41:58;13.60;;;8.05;;
44098;SDS011;29762;50.086;14.364;2023-05-10T08:47:21;11.55;;;7.40;;
44098;SDS011;29762;50.086;14.364;2023-05-10T08:52:40;13.07;;;7.68;;
44098;SDS011;29762;50.086;14.364;2023-05-10T08:58:00;11.77;;;7.40;;
44098;SDS011;29762;50.086;14.364;2023-05-10T09:03:20;13.48;;;7.32;;
44098;SDS011;29762;50.086;14.364;2023-05-10T09:08:39;12.52;;;7.30;;
44098;SDS011;29762;50.086;14.364;2023-05-10T09:14:00;12.05;;;7.15;;
44098;SDS011;29762;50.086;14.364;2023-05-10T09:19:20;12.85;;;6.85;;
44098;SDS011;29762;50.086;14.364;2023-05-10T09:24:39;12.57;;;7.20;;
44098;SDS011;29762;50.086;14.364;2023-05-10T09:30:04;10.48;;;6.60;;
44098;SDS011;29762;50.086;14.364;2023-05-10T09:35:25;10.30;;;6.20;;
44098;SDS011;29762;50.086;14.364;2023-05-10T09:40:52;10.40;;;6.82;;
44098;SDS011;29762;50.086;14.364;2023-05-10T09:46:15;10.93;;;6.90;;
44098;SDS011;29762;50.086;14.364;2023-05-10T09:51:35;9.15;;;6.57;;
44098;SDS011;29762;50.086;14.364;2023-05-10T09:56:55;10.82;;;6.45;;
44098;SDS011;29762;50.086;14.364;2023-05-10T10:02:14;9.88;;;6.38;;
44098;SDS011;29762;50.086;14.364;2023-05-10T10:07:34;10.00;;;7.00;;
44098;SDS011;29762;50.086;14.364;2023-05-10T10:12:54;7.70;;;5.20;;
44098;SDS011;29762;50.086;14.364;2023-05-10T10:18:14;10.98;;;6.22;;
44098;SDS011;29762;50.086;14.364;2023-05-10T10:23:34;8.38;;;5.15;;
44098;SDS011;29762;50.086;14.364;2023-05-10T10:34:35;7.50;;;5.40;;
44098;SDS011;29762;50.086;14.364;2023-05-10T10:39:55;8.65;;;6.13;;
44098;SDS011;29762;50.086;14.364;2023-05-10T10:45:15;9.90;;;5.70;;
44098;SDS011;29762;50.086;14.364;2023-05-10T10:50:43;9.63;;;6.28;;
44098;SDS011;29762;50.086;14.364;2023-05-10T10:56:13;8.20;;;5.97;;
44098;SDS011;29762;50.086;14.364;2023-05-10T11:01:34;9.23;;;5.57;;
44098;SDS011;29762;50.086;14.364;2023-05-10T11:07:15;8.15;;;5.57;;
44098;SDS011;29762;50.086;14.364;2023-05-10T11:12:44;7.75;;;5.38;;
44098;SDS011;29762;50.086;14.364;2023-05-10T11:18:20;8.10;;;5.10;;
44098;SDS011;29762;50.086;14.364;2023-05-10T11:29:15;7.00;;;5.15;;
44098;SDS011;29762;50.086;14.364;2023-05-10T11:34:35;8.73;;;5.32;;
44098;SDS011;29762;50.086;14.364;2023-05-10T11:39:54;7.82;;;5.20;;
44098;SDS011;29762;50.086;14.364;2023-05-10T11:45:14;7.18;;;4.55;;
44098;SDS011;29762;50.086;14.364;2023-05-10T11:50:33;6.88;;;4.85;;
44098;SDS011;29762;50.086;14.364;2023-05-10T11:55:53;6.95;;;4.93;;
44098;SDS011;29762;50.086;14.364;2023-05-10T12:01:13;7.78;;;4.55;;
44098;SDS011;29762;50.086;14.364;2023-05-10T12:06:35;7.88;;;5.20;;
44098;SDS011;29762;50.086;14.364;2023-05-10T12:11:57;6.47;;;4.03;;
44098;SDS011;29762;50.086;14.364;2023-05-10T12:17:16;6.28;;;4.65;;
44098;SDS011;29762;50.086;14.364;2023-05-10T12:22:36;7.03;;;4.20;;
44098;SDS011;29762;50.086;14.364;2023-05-10T12:27:59;5.72;;;4.53;;
44098;SDS011;29762;50.086;14.364;2023-05-10T12:33:20;6.43;;;4.30;;
44098;SDS011;29762;50.086;14.364;2023-05-10T12:38:45;5.50;;;3.63;;
44098;SDS011;29762;50.086;14.364;2023-05-10T12:44:08;6.32;;;4.38;;
44098;SDS011;29762;50.086;14.364;2023-05-10T12:49:28;7.35;;;4.50;;
44098;SDS011;29762;50.086;14.364;2023-05-10T12:54:47;4.60;;;3.72;;
44098;SDS011;29762;50.086;14.364;2023-05-10T13:00:07;5.72;;;4.03;;
44098;SDS011;29762;50.086;14.364;2023-05-10T13:05:28;5.68;;;4.10;;
44098;SDS011;29762;50.086;14.364;2023-05-10T13:10:48;3.92;;;3.30;;
44098;SDS011;29762;50.086;14.364;2023-05-10T13:16:07;5.47;;;3.55;;
44098;SDS011;29762;50.086;14.364;2023-05-10T13:21:26;5.30;;;3.92;;
44098;SDS011;29762;50.086;14.364;2023-05-10T13:26:47;4.93;;;3.60;;
44098;SDS011;29762;50.086;14.364;2023-05-10T13:32:07;5.00;;;3.90;;
44098;SDS011;29762;50.086;14.364;2023-05-10T13:37:27;3.92;;;3.40;;
44098;SDS011;29762;50.086;14.364;2023-05-10T13:42:47;5.50;;;3.22;;
44098;SDS011;29762;50.086;14.364;2023-05-10T13:48:07;5.35;;;3.72;;
44098;SDS011;29762;50.086;14.364;2023-05-10T13:53:26;4.03;;;3.28;;
44098;SDS011;29762;50.086;14.364;2023-05-10T13:58:46;3.33;;;3.03;;
44098;SDS011;29762;50.086;14.364;2023-05-10T14:04:06;4.90;;;3.80;;
44098;SDS011;29762;50.086;14.364;2023-05-10T14:09:29;4.13;;;3.33;;
44098;SDS011;29762;50.086;14.364;2023-05-10T14:14:49;4.55;;;3.28;;
44098;SDS011;29762;50.086;14.364;2023-05-10T14:20:08;5.03;;;3.90;;
44098;SDS011;29762;50.086;14.364;2023-05-10T14:25:29;3.80;;;2.97;;
44098;SDS011;29762;50.086;14.364;2023-05-10T14:30:48;4.93;;;3.35;;
44098;SDS011;29762;50.086;14.364;2023-05-10T14:36:08;3.78;;;3.28;;
44098;SDS011;29762;50.086;14.364;2023-05-10T14:41:28;3.83;;;2.70;;
44098;SDS011;29762;50.086;14.364;2023-05-10T14:46:49;3.65;;;2.75;;
44098;SDS011;29762;50.086;14.364;2023-05-10T14:52:09;4.72;;;3.85;;
44098;SDS011;29762;50.086;14.364;2023-05-10T14:57:29;4.75;;;3.22;;
44098;SDS011;29762;50.086;14.364;2023-05-10T15:02:49;5.28;;;3.22;;
44098;SDS011;29762;50.086;14.364;2023-05-10T15:08:08;4.53;;;3.42;;
44098;SDS011;29762;50.086;14.364;2023-05-10T15:13:28;4.25;;;3.50;;
44098;SDS011;29762;50.086;14.364;2023-05-10T15:18:47;3.95;;;3.10;;
44098;SDS011;29762;50.086;14.364;2023-05-10T15:24:08;3.22;;;2.92;;
44098;SDS011;29762;50.086;14.364;2023-05-10T15:29:28;3.50;;;2.85;;
44098;SDS011;29762;50.086;14.364;2023-05-10T15:34:48;4.70;;;3.00;;
44098;SDS011;29762;50.086;14.364;2023-05-10T15:40:07;3.83;;;3.42;;
44098;SDS011;29762;50.086;14.364;2023-05-10T15:45:27;3.45;;;2.78;;
44098;SDS011;29762;50.086;14.364;2023-05-10T15:50:47;5.88;;;2.80;;
44098;SDS011;29762;50.086;14.364;2023-05-10T15:56:06;7.97;;;2.65;;
44098;SDS011;29762;50.086;14.364;2023-05-10T16:01:26;4.70;;;2.45;;
44098;SDS011;29762;50.086;14.364;2023-05-10T16:06:46;3.85;;;2.42;;
44098;SDS011;29762;50.086;14.364;2023-05-10T16:12:06;7.40;;;2.30;;
44098;SDS011;29762;50.086;14.364;2023-05-10T16:17:26;6.03;;;2.25;;
44098;SDS011;29762;50.086;14.364;2023-05-10T16:22:46;3.67;;;2.20;;
44098;SDS011;29762;50.086;14.364;2023-05-10T16:28:05;6.18;;;2.30;;
44098;SDS011;29762;50.086;14.364;2023-05-10T16:33:25;4.47;;;2.30;;
44098;SDS011;29762;50.086;14.364;2023-05-10T16:38:45;2.38;;;2.17;;
44098;SDS011;29762;50.086;14.364;2023-05-10T16:44:04;2.45;;;2.03;;
44098;SDS011;29762;50.086;14.364;2023-05-10T16:49:24;3.50;;;2.25;;
44098;SDS011;29762;50.086;14.364;2023-05-10T16:54:44;2.30;;;1.90;;
44098;SDS011;29762;50.086;14.364;2023-05-10T17:00:04;4.10;;;2.40;;
44098;SDS011;29762;50.086;14.364;2023-05-10T17:05:25;3.15;;;2.30;;
44098;SDS011;29762;50.086;14.364;2023-05-10T17:10:44;6.30;;;2.33;;
44098;SDS011;29762;50.086;14.364;2023-05-10T17:16:04;2.95;;;2.17;;
44098;SDS011;29762;50.086;14.364;2023-05-10T17:21:24;4.68;;;2.42;;
44098;SDS011;29762;50.086;14.364;2023-05-10T17:26:44;3.22;;;2.10;;
44098;SDS011;29762;50.086;14.364;2023-05-10T17:32:04;2.97;;;2.20;;
44098;SDS011;29762;50.086;14.364;2023-05-10T17:37:23;3.90;;;2.38;;
44098;SDS011;29762;50.086;14.364;2023-05-10T17:42:43;4.55;;;2.15;;
44098;SDS011;29762;50.086;14.364;2023-05-10T17:48:03;4.93;;;2.30;;
44098;SDS011;29762;50.086;14.364;2023-05-10T17:53:23;2.47;;;2.28;;
44098;SDS011;29762;50.086;14.364;2023-05-10T17:58:42;4.57;;;2.10;;
44098;SDS011;29762;50.086;14.364;2023-05-10T18:04:02;5.05;;;1.95;;
44098;SDS011;29762;50.086;14.364;2023-05-10T18:09:22;3.78;;;2.10;;
44098;SDS011;29762;50.086;14.364;2023-05-10T18:14:42;3.83;;;2.30;;
44098;SDS011;29762;50.086;14.364;2023-05-10T18:20:02;4.82;;;2.15;;
44098;SDS011;29762;50.086;14.364;2023-05-10T18:25:22;3.00;;;2.10;;
44098;SDS011;29762;50.086;14.364;2023-05-10T18:30:42;8.70;;;2.53;;
44098;SDS011;29762;50.086;14.364;2023-05-10T18:36:02;4.70;;;2.42;;
44098;SDS011;29762;50.086;14.364;2023-05-10T18:41:22;3.90;;;2.90;;
44098;SDS011;29762;50.086;14.364;2023-05-10T18:46:44;4.95;;;3.13;;
44098;SDS011;29762;50.086;14.364;2023-05-10T18:52:04;7.25;;;3.72;;
44098;SDS011;29762;50.086;14.364;2023-05-10T18:57:24;5.10;;;3.67;;
44098;SDS011;29762;50.086;14.364;2023-05-10T19:02:43;6.05;;;4.13;;
44098;SDS011;29762;50.086;14.364;2023-05-10T19:08:03;5.10;;;3.80;;
44098;SDS011;29762;50.086;14.364;2023-05-10T19:13:23;4.43;;;3.38;;
44098;SDS011;29762;50.086;14.364;2023-05-10T19:18:43;6.38;;;3.70;;
44098;SDS011;29762;50.086;14.364;2023-05-10T19:24:03;4.60;;;3.53;;
44098;SDS011;29762;50.086;14.364;2023-05-10T19:29:23;9.07;;;4.10;;
44098;SDS011;29762;50.086;14.364;2023-05-10T19:34:43;6.43;;;3.70;;
44098;SDS011;29762;50.086;14.364;2023-05-10T19:40:02;5.60;;;3.45;;
44098;SDS011;29762;50.086;14.364;2023-05-10T19:45:22;5.95;;;4.13;;
44098;SDS011;29762;50.086;14.364;2023-05-10T19:50:42;5.72;;;3.80;;
44098;SDS011;29762;50.086;14.364;2023-05-10T19:56:02;7.55;;;4.03;;
44098;SDS011;29762;50.086;14.364;2023-05-10T20:01:22;4.97;;;3.58;;
44098;SDS011;29762;50.086;14.364;2023-05-10T20:06:42;2.88;;;2.35;;
44098;SDS011;29762;50.086;14.364;2023-05-10T20:12:02;5.43;;;3.58;;
44098;SDS011;29762;50.086;14.364;2023-05-10T20:17:21;4.80;;;3.22;;
44098;SDS011;29762;50.086;14.364;2023-05-10T20:22:41;4.55;;;3.25;;
44098;SDS011;29762;50.086;14.364;2023-05-10T20:28:02;5.28;;;3.50;;
44098;SDS011;29762;50.086;14.364;2023-05-10T20:33:22;5.40;;;3.70;;
44098;SDS011;29762;50.086;14.364;2023-05-10T20:38:41;5.03;;;3.45;;
44098;SDS011;29762;50.086;14.364;2023-05-10T20:44:01;5.07;;;3.65;;
44098;SDS011;29762;50.086;14.364;2023-05-10T20:49:21;4.90;;;3.45;;
44098;SDS011;29762;50.086;14.364;2023-05-10T20:54:41;4.38;;;3.58;;
44098;SDS011;29762;50.086;14.364;2023-05-10T21:00:00;5.75;;;3.80;;
44098;SDS011;29762;50.086;14.364;2023-05-10T21:05:20;3.88;;;3.10;;
44098;SDS011;29762;50.086;14.364;2023-05-10T21:10:40;4.25;;;3.33;;
44098;SDS011;29762;50.086;14.364;2023-05-10T21:15:59;5.25;;;3.45;;
44098;SDS011;29762;50.086;14.364;2023-05-10T21:21:19;4.40;;;3.47;;
44098;SDS011;29762;50.086;14.364;2023-05-10T21:26:39;3.38;;;2.65;;
44098;SDS011;29762;50.086;14.364;2023-05-10T21:31:58;4.15;;;3.05;;
44098;SDS011;29762;50.086;14.364;2023-05-10T21:37:18;2.95;;;2.65;;
44098;SDS011;29762;50.086;14.364;2023-05-10T21:42:37;4.28;;;2.90;;
44098;SDS011;29762;50.086;14.364;2023-05-10T21:48:03;3.53;;;2.58;;
44098;SDS011;29762;50.086;14.364;2023-05-10T21:53:23;4.05;;;3.22;;
44098;SDS011;29762;50.086;14.364;2023-05-10T21:58:43;3.10;;;2.80;;
44098;SDS011;29762;50.086;14.364;2023-05-10T22:04:02;4.07;;;3.05;;
44098;SDS011;29762;50.086;14.364;2023-05-10T22:09:21;3.63;;;3.08;;
44098;SDS011;29762;50.086;14.364;2023-05-10T22:14:42;4.05;;;2.70;;
44098;SDS011;29762;50.086;14.364;2023-05-10T22:20:01;3.50;;;2.90;;
44098;SDS011;29762;50.086;14.364;2023-05-10T22:25:21;3.70;;;2.80;;
44098;SDS011;29762;50.086;14.364;2023-05-10T22:30:41;3.05;;;2.50;;
44098;SDS011;29762;50.086;14.364;2023-05-10T22:36:01;3.17;;;2.75;;
44098;SDS011;29762;50.086;14.364;2023-05-10T22:41:21;4.32;;;2.90;;
44098;SDS011;29762;50.086;14.364;2023-05-10T22:46:41;3.25;;;2.80;;
44098;SDS011;29762;50.086;14.364;2023-05-10T22:52:00;3.35;;;3.00;;
44098;SDS011;29762;50.086;14.364;2023-05-10T22:57:20;2.88;;;2.67;;
44098;SDS011;29762;50.086;14.364;2023-05-10T23:02:39;2.67;;;2.47;;
44098;SDS011;29762;50.086;14.364;2023-05-10T23:07:59;3.55;;;2.65;;
44098;SDS011;29762;50.086;14.364;2023-05-10T23:13:19;2.95;;;2.58;;
44098;SDS011;29762;50.086;14.364;2023-05-10T23:18:39;4.75;;;2.67;;
44098;SDS011;29762;50.086;14.364;2023-05-10T23:23:59;3.05;;;2.65;;
44098;SDS011;29762;50.086;14.364;2023-05-10T23:29:18;3.00;;;2.70;;
44098;SDS011;29762;50.086;14.364;2023-05-10T23:34:37;3.35;;;2.78;;
44098;SDS011;29762;50.086;14.364;2023-05-10T23:39:57;2.60;;;2.40;;
44098;SDS011;29762;50.086;14.364;2023-05-10T23:45:17;2.50;;;2.30;;
44098;SDS011;29762;50.086;14.364;2023-05-10T23:50:37;2.90;;;2.60;;
44098;SDS011;29762;50.086;14.364;2023-05-10T23:56:02;3.28;;;2.70;;
